Time;durP1;ratioP1;P1;durP2;ratioP2;P2;SDS_P1;SDS_P2;PMS_P1;PMS_P2;Temp;Humidity;BMP_temperature;BMP_pressure;BME280_temperature;BME280_humidity;BME280_pressure;Samples;Min_cycle;Max_cycle;Signal;HPM_P1;HPM_P2
2022/03/25 00:00:10;;;;;;;33.50;20.43;;;;;;;;;;5044303;28;20240;-72
2022/03/25 00:02:39;;;;;;;36.03;21.17;;;;;;;;;;5055453;28;20206;-72
2022/03/25 00:05:08;;;;;;;33.83;20.80;;;;;;;;;;5049369;28;20217;-73
2022/03/25 00:07:36;;;;;;;31.53;20.40;;;;;;;;;;5036364;28;20722;-73
2022/03/25 00:10:06;;;;;;;29.23;19.37;;;;;;;;;;5040847;28;20207;-72
2022/03/25 00:12:34;;;;;;;28.87;20.00;;;;;;;;;;5056524;28;20231;-73
2022/03/25 00:15:03;;;;;;;29.17;19.90;;;;;;;;;;5054470;28;20215;-73
2022/03/25 00:17:33;;;;;;;29.30;19.07;;;;;;;;;;5054820;28;20229;-73
2022/03/25 00:20:01;;;;;;;32.23;19.67;;;;;;;;;;5055277;28;20201;-72
2022/03/25 00:22:30;;;;;;;24.60;18.83;;;;;;;;;;5055968;28;20231;-72
2022/03/25 00:24:58;;;;;;;28.10;19.43;;;;;;;;;;5055357;28;20199;-73
2022/03/25 00:27:27;;;;;;;32.80;19.70;;;;;;;;;;5055884;28;20702;-72
2022/03/25 00:29:55;;;;;;;25.13;18.23;;;;;;;;;;5055644;28;20291;-72
2022/03/25 00:32:25;;;;;;;26.77;19.20;;;;;;;;;;5055893;28;20242;-72
2022/03/25 00:34:54;;;;;;;27.93;18.80;;;;;;;;;;5053533;28;20346;-73
2022/03/25 00:37:23;;;;;;;30.90;19.57;;;;;;;;;;5056135;28;20234;-72
2022/03/25 00:39:52;;;;;;;29.03;17.97;;;;;;;;;;5055162;28;20268;-72
2022/03/25 00:42:20;;;;;;;24.77;18.03;;;;;;;;;;5055024;28;20203;-72
2022/03/25 00:44:49;;;;;;;27.33;18.73;;;;;;;;;;5100383;22;20285;-73
2022/03/25 00:47:18;;;;;;;24.90;16.80;;;;;;;;;;5054057;28;20237;-73
2022/03/25 00:49:47;;;;;;;25.00;17.87;;;;;;;;;;5053677;28;20642;-73
2022/03/25 00:52:17;;;;;;;25.67;17.70;;;;;;;;;;5054264;28;20313;-73
2022/03/25 00:54:46;;;;;;;28.20;16.93;;;;;;;;;;5055038;28;20207;-73
2022/03/25 00:57:14;;;;;;;23.53;16.77;;;;;;;;;;5053243;28;20235;-73
2022/03/25 00:59:42;;;;;;;24.80;17.80;;;;;;;;;;5055158;28;20214;-73
2022/03/25 01:02:11;;;;;;;24.87;17.57;;;;;;;;;;5054247;28;20207;-73
2022/03/25 01:04:40;;;;;;;28.57;19.20;;;;;;;;;;5054732;28;20206;-73
2022/03/25 01:07:08;;;;;;;27.00;18.53;;;;;;;;;;5054209;28;20745;-72
2022/03/25 01:09:39;;;;;;;26.30;18.60;;;;;;;;;;5054525;28;20214;-73
2022/03/25 01:12:08;;;;;;;28.97;19.30;;;;;;;;;;5054665;28;20223;-72
2022/03/25 01:14:37;;;;;;;27.43;18.83;;;;;;;;;;5053762;28;20230;-73
2022/03/25 01:17:05;;;;;;;30.93;19.33;;;;;;;;;;5051995;28;20215;-73
2022/03/25 01:19:34;;;;;;;31.33;20.50;;;;;;;;;;5054894;28;20229;-73
2022/03/25 01:22:05;;;;;;;32.50;20.63;;;;;;;;;;5054102;28;20198;-73
2022/03/25 01:24:33;;;;;;;32.13;20.97;;;;;;;;;;5040257;28;20208;-73
2022/03/25 01:27:04;;;;;;;28.00;18.93;;;;;;;;;;5049222;28;20219;-73
2022/03/25 01:29:32;;;;;;;28.73;19.37;;;;;;;;;;5054874;28;20206;-73
2022/03/25 01:32:01;;;;;;;34.27;19.83;;;;;;;;;;5053212;28;20234;-73
2022/03/25 01:34:31;;;;;;;33.53;20.53;;;;;;;;;;5055005;28;20560;-73
2022/03/25 01:37:00;;;;;;;32.97;20.13;;;;;;;;;;5054753;28;20234;-73
2022/03/25 01:39:28;;;;;;;35.20;20.93;;;;;;;;;;5053428;28;20210;-73
2022/03/25 01:41:57;;;;;;;34.70;22.00;;;;;;;;;;5052083;28;20208;-72
2022/03/25 01:44:27;;;;;;;34.63;21.13;;;;;;;;;;5054285;28;20207;-72
2022/03/25 01:46:56;;;;;;;31.67;20.13;;;;;;;;;;5052428;28;20230;-73
2022/03/25 01:49:25;;;;;;;32.23;21.80;;;;;;;;;;5054541;28;20210;-73
2022/03/25 01:51:55;;;;;;;31.77;20.83;;;;;;;;;;5053341;28;20225;-73
2022/03/25 01:54:25;;;;;;;31.03;20.60;;;;;;;;;;5054086;28;20200;-73
2022/03/25 01:56:55;;;;;;;32.97;20.87;;;;;;;;;;5053482;28;20225;-72
2022/03/25 01:59:24;;;;;;;29.73;19.23;;;;;;;;;;5054001;28;20277;-73
2022/03/25 02:01:55;;;;;;;31.60;19.77;;;;;;;;;;5053993;28;20239;-73
2022/03/25 02:04:25;;;;;;;32.27;20.33;;;;;;;;;;5053262;28;20746;-73
2022/03/25 02:06:53;;;;;;;33.30;20.50;;;;;;;;;;5050006;28;20233;-73
2022/03/25 02:09:22;;;;;;;30.93;19.93;;;;;;;;;;5052300;28;20211;-73
2022/03/25 02:11:50;;;;;;;34.20;21.33;;;;;;;;;;5053937;28;20690;-73
2022/03/25 02:14:20;;;;;;;31.73;21.17;;;;;;;;;;5052680;28;20237;-72
2022/03/25 02:16:49;;;;;;;32.70;21.00;;;;;;;;;;5049524;28;21118;-72
2022/03/25 02:19:19;;;;;;;30.83;20.47;;;;;;;;;;5052720;28;20209;-73
2022/03/25 02:21:50;;;;;;;33.97;21.07;;;;;;;;;;5053382;28;20202;-73
2022/03/25 02:24:18;;;;;;;29.27;19.67;;;;;;;;;;5053101;28;20210;-72
2022/03/25 02:26:47;;;;;;;28.97;19.87;;;;;;;;;;5053801;28;20229;-73
2022/03/25 02:29:16;;;;;;;30.73;19.87;;;;;;;;;;5053767;28;20210;-72
2022/03/25 02:31:44;;;;;;;32.30;20.33;;;;;;;;;;5037808;28;20573;-72
2022/03/25 02:34:13;;;;;;;31.63;20.03;;;;;;;;;;5050131;28;20209;-73
2022/03/25 02:36:42;;;;;;;31.57;20.77;;;;;;;;;;5048527;28;20237;-72
2022/03/25 02:39:13;;;;;;;32.10;20.27;;;;;;;;;;5052332;28;20214;-73
2022/03/25 02:41:42;;;;;;;31.70;19.97;;;;;;;;;;5051071;28;20207;-73
2022/03/25 02:44:11;;;;;;;31.53;20.27;;;;;;;;;;5053202;28;20211;-73
2022/03/25 02:46:40;;;;;;;34.40;22.33;;;;;;;;;;5052632;28;20319;-73
2022/03/25 02:49:09;;;;;;;33.40;20.97;;;;;;;;;;5053070;28;20204;-73
2022/03/25 02:51:37;;;;;;;30.53;20.23;;;;;;;;;;5051922;28;20203;-73
2022/03/25 02:54:06;;;;;;;31.20;20.13;;;;;;;;;;5053388;28;20195;-73
2022/03/25 02:56:36;;;;;;;30.57;20.40;;;;;;;;;;5051038;28;20639;-73
2022/03/25 02:59:04;;;;;;;33.30;21.03;;;;;;;;;;5052936;28;20207;-73
2022/03/25 03:01:33;;;;;;;29.90;19.90;;;;;;;;;;5050924;28;20202;-73
2022/03/25 03:04:02;;;;;;;32.63;21.40;;;;;;;;;;5050103;28;20202;-73
2022/03/25 03:06:30;;;;;;;32.97;20.77;;;;;;;;;;5052819;28;20802;-72
2022/03/25 03:08:59;;;;;;;31.10;19.73;;;;;;;;;;5052167;28;20295;-73
2022/03/25 03:11:28;;;;;;;27.53;19.40;;;;;;;;;;5042871;28;20211;-73
2022/03/25 03:13:58;;;;;;;32.23;20.33;;;;;;;;;;5044809;28;20224;-73
2022/03/25 03:16:26;;;;;;;28.20;18.63;;;;;;;;;;5051628;28;20232;-73
2022/03/25 03:18:55;;;;;;;28.97;18.27;;;;;;;;;;5051508;28;20202;-72
2022/03/25 03:21:24;;;;;;;24.70;17.53;;;;;;;;;;5047549;28;20209;-73
2022/03/25 03:23:53;;;;;;;26.27;17.30;;;;;;;;;;5042036;28;20199;-73
2022/03/25 03:26:22;;;;;;;29.30;18.43;;;;;;;;;;5046605;28;20219;-73
2022/03/25 03:28:51;;;;;;;29.03;19.40;;;;;;;;;;5053245;28;20209;-73
2022/03/25 03:31:21;;;;;;;30.57;20.03;;;;;;;;;;5051639;28;20230;-73
2022/03/25 03:33:49;;;;;;;31.77;20.27;;;;;;;;;;5052889;28;20224;-73
2022/03/25 03:36:17;;;;;;;29.20;20.70;;;;;;;;;;5042194;28;20200;-73
2022/03/25 03:38:47;;;;;;;35.20;19.90;;;;;;;;;;5048917;28;20208;-73
2022/03/25 03:41:15;;;;;;;25.33;17.93;;;;;;;;;;5044485;28;20548;-73
2022/03/25 03:43:44;;;;;;;27.87;18.50;;;;;;;;;;5043725;28;20203;-73
2022/03/25 03:46:12;;;;;;;32.10;21.17;;;;;;;;;;5040126;28;20980;-73
2022/03/25 03:48:43;;;;;;;32.37;20.87;;;;;;;;;;5032809;28;20669;-74
2022/03/25 03:51:11;;;;;;;32.73;21.47;;;;;;;;;;5043798;28;20209;-73
2022/03/25 03:53:40;;;;;;;32.17;20.70;;;;;;;;;;5052329;28;20223;-73
2022/03/25 03:56:08;;;;;;;29.43;20.80;;;;;;;;;;5051838;28;20206;-73
2022/03/25 03:58:37;;;;;;;36.53;22.10;;;;;;;;;;5052531;28;20252;-73
2022/03/25 04:01:05;;;;;;;32.13;21.67;;;;;;;;;;5045762;28;20239;-73
2022/03/25 04:03:34;;;;;;;35.73;22.33;;;;;;;;;;5049995;28;20271;-73
2022/03/25 04:06:05;;;;;;;29.80;19.97;;;;;;;;;;5052186;28;20240;-73
2022/03/25 04:08:34;;;;;;;30.83;21.40;;;;;;;;;;5051359;28;20207;-73
2022/03/25 04:11:02;;;;;;;34.87;21.90;;;;;;;;;;5106107;22;20226;-72
2022/03/25 04:13:31;;;;;;;31.60;20.90;;;;;;;;;;5072936;28;20230;-73
2022/03/25 04:15:59;;;;;;;34.97;21.97;;;;;;;;;;5075280;28;20206;-72
2022/03/25 04:18:28;;;;;;;34.50;21.93;;;;;;;;;;5075611;28;20211;-72
2022/03/25 04:20:56;;;;;;;31.40;20.40;;;;;;;;;;5075376;28;20206;-72
2022/03/25 04:23:26;;;;;;;29.57;20.93;;;;;;;;;;5075904;28;20195;-72
2022/03/25 04:25:54;;;;;;;32.07;21.63;;;;;;;;;;5075302;28;20251;-72
2022/03/25 04:28:23;;;;;;;32.07;22.40;;;;;;;;;;5076035;28;20222;-72
2022/03/25 04:30:51;;;;;;;35.80;23.10;;;;;;;;;;5074688;28;20204;-72
2022/03/25 04:33:20;;;;;;;33.40;22.13;;;;;;;;;;5075945;28;20247;-72
2022/03/25 04:35:48;;;;;;;32.90;22.07;;;;;;;;;;5065031;28;20208;-72
2022/03/25 04:38:17;;;;;;;31.77;20.63;;;;;;;;;;5075956;28;20280;-72
2022/03/25 04:40:46;;;;;;;32.07;21.33;;;;;;;;;;5074699;28;20261;-72
2022/03/25 04:43:15;;;;;;;34.47;21.33;;;;;;;;;;5073482;28;20241;-72
2022/03/25 04:45:43;;;;;;;30.37;20.80;;;;;;;;;;5074641;28;20252;-72
2022/03/25 04:48:12;;;;;;;28.90;20.30;;;;;;;;;;5075518;28;20626;-72
2022/03/25 04:50:41;;;;;;;35.00;21.60;;;;;;;;;;5072861;28;20926;-73
2022/03/25 04:53:10;;;;;;;34.07;21.57;;;;;;;;;;5073722;28;20219;-72
2022/03/25 04:55:41;;;;;;;34.13;22.27;;;;;;;;;;5074834;28;20704;-73
2022/03/25 04:58:11;;;;;;;33.97;21.83;;;;;;;;;;5075826;28;20222;-72
2022/03/25 05:00:40;;;;;;;36.93;22.03;;;;;;;;;;5074770;28;20202;-72
2022/03/25 05:03:09;;;;;;;39.17;21.17;;;;;;;;;;5055233;28;20294;-72
2022/03/25 05:05:42;;;;;;;31.77;21.13;;;;;;;;;;5061389;28;20207;-72
2022/03/25 05:08:12;;;;;;;31.00;21.43;;;;;;;;;;5075772;28;20260;-72
2022/03/25 05:10:40;;;;;;;32.53;21.17;;;;;;;;;;5074718;28;20652;-72
2022/03/25 05:13:30;;;;;;;34.47;21.03;;;;;;;;;;5055109;28;20390;-72
2022/03/25 05:15:59;;;;;;;35.63;21.80;;;;;;;;;;5069345;28;20203;-72
2022/03/25 05:18:27;;;;;;;28.47;19.70;;;;;;;;;;5070686;28;20213;-73
2022/03/25 05:20:56;;;;;;;31.47;20.40;;;;;;;;;;5072093;28;20204;-72
2022/03/25 05:23:25;;;;;;;31.90;21.03;;;;;;;;;;5067737;28;20205;-72
2022/03/25 05:25:53;;;;;;;39.57;21.20;;;;;;;;;;5069313;28;20210;-72
2022/03/25 05:28:21;;;;;;;33.20;20.93;;;;;;;;;;5074160;28;20686;-72
2022/03/25 05:30:51;;;;;;;32.10;21.13;;;;;;;;;;5075267;28;20202;-72
2022/03/25 05:33:20;;;;;;;33.43;20.33;;;;;;;;;;5075100;28;20191;-72
2022/03/25 05:35:49;;;;;;;35.70;21.97;;;;;;;;;;5064666;28;20205;-72
2022/03/25 05:38:18;;;;;;;32.27;21.13;;;;;;;;;;5070603;28;20219;-72
2022/03/25 05:40:47;;;;;;;32.80;22.23;;;;;;;;;;5073969;28;20209;-72
2022/03/25 05:43:16;;;;;;;34.50;21.63;;;;;;;;;;5074430;28;20214;-72
2022/03/25 05:45:44;;;;;;;33.57;20.67;;;;;;;;;;5073541;28;20654;-72
2022/03/25 05:48:14;;;;;;;35.10;21.77;;;;;;;;;;5074302;28;20226;-72
2022/03/25 05:50:43;;;;;;;35.67;21.30;;;;;;;;;;5073634;28;20256;-72
2022/03/25 05:53:11;;;;;;;34.43;21.13;;;;;;;;;;5071332;28;20735;-72
2022/03/25 05:55:40;;;;;;;35.10;20.93;;;;;;;;;;5072165;28;20218;-73
2022/03/25 05:58:09;;;;;;;33.87;21.07;;;;;;;;;;5054330;28;20231;-72
2022/03/25 06:00:37;;;;;;;32.60;21.27;;;;;;;;;;5061843;28;20281;-72
2022/03/25 06:03:07;;;;;;;33.77;20.80;;;;;;;;;;5072563;28;20560;-72
2022/03/25 06:05:38;;;;;;;31.10;20.63;;;;;;;;;;5072883;28;20231;-72
2022/03/25 06:08:07;;;;;;;34.40;20.80;;;;;;;;;;5072966;28;20634;-73
2022/03/25 06:10:35;;;;;;;30.23;20.93;;;;;;;;;;5073756;28;20592;-72
2022/03/25 06:13:04;;;;;;;31.80;21.17;;;;;;;;;;5065499;28;20211;-73
2022/03/25 06:15:33;;;;;;;32.07;21.33;;;;;;;;;;5067826;28;20233;-73
2022/03/25 06:18:01;;;;;;;30.27;20.30;;;;;;;;;;5071311;28;20240;-73
2022/03/25 06:20:30;;;;;;;32.93;21.30;;;;;;;;;;5072008;28;20208;-73
2022/03/25 06:22:59;;;;;;;36.00;21.80;;;;;;;;;;5068546;28;20198;-73
2022/03/25 06:25:28;;;;;;;34.00;21.23;;;;;;;;;;5072002;28;20206;-73
2022/03/25 06:27:57;;;;;;;35.97;21.17;;;;;;;;;;5066527;28;20269;-73
2022/03/25 06:30:27;;;;;;;31.93;21.37;;;;;;;;;;5064724;28;20248;-73
2022/03/25 06:32:56;;;;;;;39.60;23.60;;;;;;;;;;5062221;28;20224;-73
2022/03/25 06:35:25;;;;;;;32.10;23.90;;;;;;;;;;5072629;28;20222;-73
2022/03/25 06:37:53;;;;;;;36.20;23.50;;;;;;;;;;5072512;28;20217;-73
2022/03/25 06:40:23;;;;;;;32.07;22.70;;;;;;;;;;5068069;28;20288;-73
2022/03/25 06:42:53;;;;;;;35.90;23.80;;;;;;;;;;5071979;28;20657;-73
2022/03/25 06:45:21;;;;;;;35.43;23.00;;;;;;;;;;5073290;28;20229;-73
2022/03/25 06:47:49;;;;;;;36.63;25.20;;;;;;;;;;5072904;28;20758;-73
2022/03/25 06:50:19;;;;;;;37.10;24.93;;;;;;;;;;5074143;28;20210;-73
2022/03/25 06:52:47;;;;;;;37.30;24.83;;;;;;;;;;5073581;28;20204;-72
2022/03/25 06:55:16;;;;;;;37.77;24.77;;;;;;;;;;5073014;28;20711;-73
2022/03/25 06:57:50;;;;;;;34.80;24.37;;;;;;;;;;5072597;28;20710;-73
2022/03/25 07:00:19;;;;;;;33.73;23.57;;;;;;;;;;5073466;28;20206;-73
2022/03/25 07:02:48;;;;;;;36.20;22.93;;;;;;;;;;5073469;28;20292;-74
2022/03/25 07:05:17;;;;;;;37.07;23.40;;;;;;;;;;5073267;28;20236;-73
2022/03/25 07:07:46;;;;;;;34.00;22.87;;;;;;;;;;5073357;28;20214;-74
2022/03/25 07:10:15;;;;;;;32.87;22.73;;;;;;;;;;5072772;28;20198;-72
2022/03/25 07:12:45;;;;;;;32.83;23.10;;;;;;;;;;5072528;28;20258;-73
2022/03/25 07:15:15;;;;;;;29.60;21.63;;;;;;;;;;5072631;28;20314;-73
2022/03/25 07:17:44;;;;;;;30.60;21.93;;;;;;;;;;5072826;28;20218;-73
2022/03/25 07:20:14;;;;;;;36.20;23.17;;;;;;;;;;5073347;28;20213;-73
2022/03/25 07:22:43;;;;;;;34.83;22.00;;;;;;;;;;5073299;28;20643;-72
2022/03/25 07:25:12;;;;;;;35.27;22.47;;;;;;;;;;5073307;28;20205;-73
2022/03/25 07:27:40;;;;;;;30.23;21.77;;;;;;;;;;5072773;28;20225;-73
2022/03/25 07:30:09;;;;;;;29.10;21.93;;;;;;;;;;5072919;28;20257;-73
2022/03/25 07:32:39;;;;;;;34.33;22.47;;;;;;;;;;5072767;28;20201;-72
2022/03/25 07:35:09;;;;;;;31.23;21.00;;;;;;;;;;5072643;28;20758;-72
2022/03/25 07:37:38;;;;;;;29.27;21.40;;;;;;;;;;5072615;28;20214;-73
2022/03/25 07:40:08;;;;;;;31.80;22.10;;;;;;;;;;5072554;28;20280;-72
2022/03/25 07:42:37;;;;;;;35.23;23.13;;;;;;;;;;5072785;28;20202;-73
2022/03/25 07:45:08;;;;;;;31.00;23.77;;;;;;;;;;5072815;28;20198;-73
2022/03/25 07:47:41;;;;;;;32.43;23.30;;;;;;;;;;5072973;28;20218;-72
2022/03/25 07:50:11;;;;;;;33.53;24.50;;;;;;;;;;5076204;28;20191;-73
2022/03/25 07:52:39;;;;;;;34.83;23.80;;;;;;;;;;5076496;28;20202;-72
2022/03/25 07:55:09;;;;;;;31.93;22.87;;;;;;;;;;5076561;28;20218;-72
2022/03/25 07:57:38;;;;;;;34.57;24.93;;;;;;;;;;5076166;28;20619;-73
2022/03/25 08:00:11;;;;;;;34.47;24.73;;;;;;;;;;5076498;28;20293;-72
2022/03/25 08:02:41;;;;;;;41.03;24.73;;;;;;;;;;5076475;28;20198;-72
2022/03/25 08:05:11;;;;;;;34.73;24.30;;;;;;;;;;5075603;28;20222;-73
2022/03/25 08:07:43;;;;;;;34.10;24.93;;;;;;;;;;5075778;28;20218;-73
2022/03/25 08:10:11;;;;;;;35.23;25.33;;;;;;;;;;5076361;28;20202;-72
2022/03/25 08:12:40;;;;;;;37.63;25.60;;;;;;;;;;5075731;28;20207;-73
2022/03/25 08:15:09;;;;;;;36.30;25.70;;;;;;;;;;5076082;28;20689;-73
2022/03/25 08:17:49;;;;;;;33.27;26.03;;;;;;;;;;5075807;28;20234;-72
2022/03/25 08:20:22;;;;;;;38.70;26.30;;;;;;;;;;5076159;28;20189;-73
2022/03/25 08:22:50;;;;;;;36.23;25.13;;;;;;;;;;5075745;28;20195;-73
2022/03/25 08:28:05;;;;;;;32.87;24.63;;;;;;;;;;5075773;28;20231;-72
2022/03/25 08:30:34;;;;;;;34.33;23.50;;;;;;;;;;5075869;28;20226;-73
2022/03/25 08:33:04;;;;;;;34.57;23.57;;;;;;;;;;5076052;28;20233;-73
2022/03/25 08:35:34;;;;;;;32.37;22.67;;;;;;;;;;5075685;28;20218;-73
2022/03/25 08:38:02;;;;;;;28.37;20.50;;;;;;;;;;5075471;28;20210;-73
2022/03/25 08:40:32;;;;;;;31.97;21.80;;;;;;;;;;5075613;28;20209;-73
2022/03/25 08:43:02;;;;;;;27.37;19.77;;;;;;;;;;5076230;28;20195;-72
2022/03/25 08:45:31;;;;;;;31.57;20.23;;;;;;;;;;5075354;28;20229;-73
2022/03/25 08:47:59;;;;;;;30.23;20.67;;;;;;;;;;5075920;28;20218;-72
2022/03/25 08:50:29;;;;;;;28.57;20.23;;;;;;;;;;5075618;28;20197;-73
2022/03/25 08:52:57;;;;;;;26.80;19.60;;;;;;;;;;5075701;28;20194;-72
2022/03/25 08:55:26;;;;;;;28.73;19.37;;;;;;;;;;5074364;28;20226;-73
2022/03/25 08:57:54;;;;;;;25.40;17.87;;;;;;;;;;5075513;28;20252;-73
2022/03/25 09:00:23;;;;;;;27.43;18.03;;;;;;;;;;5074306;28;20202;-73
2022/03/25 09:02:51;;;;;;;27.23;19.07;;;;;;;;;;5074629;28;20201;-73
2022/03/25 09:05:20;;;;;;;34.00;19.83;;;;;;;;;;5074471;28;20195;-73
2022/03/25 09:07:50;;;;;;;27.03;20.03;;;;;;;;;;5068251;28;20268;-73
2022/03/25 09:10:18;;;;;;;29.20;19.40;;;;;;;;;;5075563;28;20653;-73
2022/03/25 09:12:47;;;;;;;27.93;19.60;;;;;;;;;;5074682;28;20194;-73
2022/03/25 09:15:16;;;;;;;25.80;19.20;;;;;;;;;;5074932;28;20203;-73
2022/03/25 09:17:45;;;;;;;29.63;19.40;;;;;;;;;;5075056;28;20271;-73
2022/03/25 09:20:14;;;;;;;28.17;19.33;;;;;;;;;;5075084;28;20218;-73
2022/03/25 09:22:44;;;;;;;24.27;19.83;;;;;;;;;;5074878;28;20226;-73
2022/03/25 09:25:14;;;;;;;27.73;19.73;;;;;;;;;;5075031;28;20214;-73
2022/03/25 09:27:42;;;;;;;23.57;17.43;;;;;;;;;;5074482;28;20774;-73
2022/03/25 09:30:12;;;;;;;23.17;15.43;;;;;;;;;;5074976;28;20213;-73
2022/03/25 09:33:01;;;;;;;19.17;15.37;;;;;;;;;;5074972;28;20251;-73
2022/03/25 09:35:34;;;;;;;24.10;14.93;;;;;;;;;;5074910;28;20309;-74
2022/03/25 09:38:03;;;;;;;20.37;15.10;;;;;;;;;;5074610;28;20635;-73
2022/03/25 09:40:33;;;;;;;19.50;14.57;;;;;;;;;;5074653;28;20210;-73
2022/03/25 09:43:01;;;;;;;17.93;14.33;;;;;;;;;;5074478;28;20202;-73
2022/03/25 09:45:33;;;;;;;21.80;14.03;;;;;;;;;;5073976;28;20281;-73
2022/03/25 09:48:02;;;;;;;17.23;13.77;;;;;;;;;;5074096;28;20222;-73
2022/03/25 09:50:31;;;;;;;24.63;15.77;;;;;;;;;;5074336;28;20588;-73
2022/03/25 09:52:59;;;;;;;18.27;14.07;;;;;;;;;;5074364;28;20198;-73
2022/03/25 09:55:40;;;;;;;24.50;13.77;;;;;;;;;;5074263;28;20244;-74
2022/03/25 09:58:10;;;;;;;22.07;13.20;;;;;;;;;;5074051;28;20295;-74
2022/03/25 10:00:39;;;;;;;22.30;13.70;;;;;;;;;;5063263;28;20238;-73
2022/03/25 10:03:09;;;;;;;18.73;13.73;;;;;;;;;;5054043;28;20671;-73
2022/03/25 10:05:54;;;;;;;21.73;13.20;;;;;;;;;;5053689;28;20237;-73
2022/03/25 10:08:43;;;;;;;20.70;12.85;;;;;;;;;;5054076;28;20735;-73
2022/03/25 10:11:26;;;;;;;18.25;13.35;;;;;;;;;;5053905;28;20211;-73
2022/03/25 10:14:09;;;;;;;21.10;12.95;;;;;;;;;;5053977;28;20207;-73
2022/03/25 10:16:37;;;;;;;17.25;13.02;;;;;;;;;;5057754;28;20275;-73
2022/03/25 10:19:07;;;;;;;23.35;13.77;;;;;;;;;;5074057;28;20202;-73
2022/03/25 10:21:50;;;;;;;21.75;13.00;;;;;;;;;;5073795;28;20206;-73
2022/03/25 10:24:19;;;;;;;18.85;12.90;;;;;;;;;;5073783;28;20256;-74
2022/03/25 10:26:51;;;;;;;18.20;12.63;;;;;;;;;;5073338;28;20222;-73
2022/03/25 10:29:23;;;;;;;17.42;12.07;;;;;;;;;;5073549;28;20661;-73
2022/03/25 10:32:03;;;;;;;22.58;12.88;;;;;;;;;;5073883;28;20209;-73
2022/03/25 10:34:32;;;;;;;19.10;13.65;;;;;;;;;;5073585;28;20226;-73
2022/03/25 10:37:01;;;;;;;23.35;13.07;;;;;;;;;;5073225;28;20226;-73
2022/03/25 10:39:30;;;;;;;16.13;11.00;;;;;;;;;;5073798;28;20583;-73
2022/03/25 10:42:00;;;;;;;18.40;12.50;;;;;;;;;;5073712;28;20546;-73
2022/03/25 10:44:34;;;;;;;19.83;13.90;;;;;;;;;;5073747;28;20190;-73
2022/03/25 10:47:20;;;;;;;21.75;13.50;;;;;;;;;;5073335;28;20268;-73
2022/03/25 10:49:49;;;;;;;20.83;14.88;;;;;;;;;;5073474;28;20209;-73
2022/03/25 10:52:23;;;;;;;24.08;15.50;;;;;;;;;;5073273;28;20661;-73
2022/03/25 10:55:15;;;;;;;23.25;16.48;;;;;;;;;;5073007;28;20201;-73
2022/03/25 10:57:52;;;;;;;25.52;18.17;;;;;;;;;;5073398;28;20222;-73
2022/03/25 11:00:21;;;;;;;25.50;17.92;;;;;;;;;;5073578;28;20207;-74
2022/03/25 11:02:49;;;;;;;25.52;18.88;;;;;;;;;;5072950;28;20198;-73
2022/03/25 11:05:18;;;;;;;27.25;19.30;;;;;;;;;;5072173;28;20201;-73
2022/03/25 11:07:49;;;;;;;25.38;18.13;;;;;;;;;;5060921;28;20242;-73
2022/03/25 11:10:18;;;;;;;24.52;18.70;;;;;;;;;;5073145;28;20751;-73
2022/03/25 11:12:47;;;;;;;28.58;18.77;;;;;;;;;;5073468;28;20252;-73
2022/03/25 11:15:18;;;;;;;28.27;19.27;;;;;;;;;;5072620;28;20209;-73
2022/03/25 11:17:47;;;;;;;25.80;18.75;;;;;;;;;;5072653;28;20229;-73
2022/03/25 11:20:16;;;;;;;27.35;19.65;;;;;;;;;;5072838;28;20228;-73
2022/03/25 11:22:45;;;;;;;31.73;20.65;;;;;;;;;;5072864;28;20198;-73
2022/03/25 11:25:15;;;;;;;37.47;19.52;;;;;;;;;;5071668;28;21070;-73
2022/03/25 11:27:47;;;;;;;23.15;18.88;;;;;;;;;;5064644;28;20214;-73
2022/03/25 11:30:17;;;;;;;25.08;19.85;;;;;;;;;;5072911;28;20211;-73
2022/03/25 11:32:49;;;;;;;28.35;18.67;;;;;;;;;;5053404;28;20199;-73
2022/03/25 11:35:21;;;;;;;27.60;20.67;;;;;;;;;;5052874;28;20732;-74
2022/03/25 11:38:10;;;;;;;24.80;19.27;;;;;;;;;;5066098;28;20680;-73
2022/03/25 11:40:40;;;;;;;24.65;18.75;;;;;;;;;;5052762;28;20233;-73
2022/03/25 11:43:14;;;;;;;26.23;19.50;;;;;;;;;;5052703;28;20598;-73
2022/03/25 11:45:44;;;;;;;25.20;19.95;;;;;;;;;;5052990;28;20213;-73
2022/03/25 11:48:31;;;;;;;25.25;19.60;;;;;;;;;;5052785;28;20265;-73
2022/03/25 11:51:01;;;;;;;25.83;18.85;;;;;;;;;;5060112;28;20202;-73
2022/03/25 11:53:33;;;;;;;22.55;17.23;;;;;;;;;;5072750;28;20198;-73
2022/03/25 11:56:03;;;;;;;24.42;17.60;;;;;;;;;;5073087;28;20255;-74
2022/03/25 11:58:33;;;;;;;23.48;18.13;;;;;;;;;;5070861;28;20700;-73
2022/03/25 12:01:20;;;;;;;27.25;18.48;;;;;;;;;;5072032;28;20206;-74
2022/03/25 12:03:49;;;;;;;27.40;18.70;;;;;;;;;;5057581;28;20205;-74
2022/03/25 12:06:18;;;;;;;22.63;17.95;;;;;;;;;;5071305;28;20649;-73
2022/03/25 12:08:56;;;;;;;27.27;20.25;;;;;;;;;;5070966;28;20280;-73
2022/03/25 12:11:39;;;;;;;28.67;21.30;;;;;;;;;;5068890;28;20221;-74
2022/03/25 12:14:08;;;;;;;30.67;22.40;;;;;;;;;;5067463;28;20259;-74
2022/03/25 12:16:57;;;;;;;29.63;21.23;;;;;;;;;;5070916;28;20625;-74
2022/03/25 12:19:53;;;;;;;30.80;21.85;;;;;;;;;;5072447;28;20217;-74
2022/03/25 12:22:36;;;;;;;27.85;22.85;;;;;;;;;;5024839;28;20203;-74
2022/03/25 12:25:10;;;;;;;26.40;22.42;;;;;;;;;;5070562;28;20219;-75
2022/03/25 12:27:39;;;;;;;30.60;23.13;;;;;;;;;;5068930;28;20755;-73
2022/03/25 12:30:08;;;;;;;28.95;21.98;;;;;;;;;;5065677;28;20207;-73
2022/03/25 12:32:39;;;;;;;28.63;22.45;;;;;;;;;;5066928;28;20206;-73
2022/03/25 12:35:08;;;;;;;27.67;22.88;;;;;;;;;;5067057;28;20673;-73
2022/03/25 12:37:48;;;;;;;30.25;24.10;;;;;;;;;;5070447;28;20233;-73
2022/03/25 12:40:18;;;;;;;30.55;23.95;;;;;;;;;;5073020;28;20665;-73
2022/03/25 12:42:49;;;;;;;30.88;22.80;;;;;;;;;;5071788;28;20657;-73
2022/03/25 12:45:17;;;;;;;28.90;22.88;;;;;;;;;;5071187;28;20272;-72
2022/03/25 12:47:49;;;;;;;28.83;23.00;;;;;;;;;;5075496;28;20218;-73
2022/03/25 12:50:18;;;;;;;27.77;23.52;;;;;;;;;;5074893;28;20611;-73
2022/03/25 12:52:46;;;;;;;33.95;23.35;;;;;;;;;;5074743;28;20202;-72
2022/03/25 12:55:16;;;;;;;29.77;22.33;;;;;;;;;;5075077;28;20248;-73
2022/03/25 12:57:46;;;;;;;27.10;22.58;;;;;;;;;;5067423;28;20222;-73
2022/03/25 13:00:14;;;;;;;32.25;22.42;;;;;;;;;;5070052;28;20203;-74
2022/03/25 13:02:44;;;;;;;27.33;21.95;;;;;;;;;;5068992;28;20206;-73
2022/03/25 13:05:15;;;;;;;30.08;23.20;;;;;;;;;;5062628;28;20208;-73
2022/03/25 13:07:46;;;;;;;29.45;22.85;;;;;;;;;;5069785;28;20743;-73
2022/03/25 13:10:14;;;;;;;33.92;23.55;;;;;;;;;;5072780;28;20206;-73
2022/03/25 13:12:44;;;;;;;27.70;22.40;;;;;;;;;;5071876;28;20215;-73
2022/03/25 13:15:15;;;;;;;24.92;22.08;;;;;;;;;;5073185;28;20306;-73
2022/03/25 13:17:44;;;;;;;29.30;22.75;;;;;;;;;;5074365;28;20214;-73
2022/03/25 13:20:18;;;;;;;29.60;23.65;;;;;;;;;;5073732;28;20611;-74
2022/03/25 13:23:06;;;;;;;28.75;22.83;;;;;;;;;;5058527;28;20209;-73
2022/03/25 13:25:36;;;;;;;32.00;23.67;;;;;;;;;;5074760;28;20214;-73
2022/03/25 13:28:09;;;;;;;31.38;24.35;;;;;;;;;;5072795;28;20218;-73
2022/03/25 13:30:38;;;;;;;27.17;22.08;;;;;;;;;;5070977;28;20198;-74
2022/03/25 13:33:08;;;;;;;27.73;22.20;;;;;;;;;;5074575;28;20198;-73
2022/03/25 13:35:39;;;;;;;30.33;22.55;;;;;;;;;;5075075;28;20195;-73
2022/03/25 13:38:09;;;;;;;28.05;22.30;;;;;;;;;;5074799;28;20296;-74
2022/03/25 13:40:40;;;;;;;31.45;23.77;;;;;;;;;;5074247;28;20198;-73
2022/03/25 13:43:09;;;;;;;26.83;21.83;;;;;;;;;;5074852;28;20190;-73
2022/03/25 13:45:37;;;;;;;33.60;22.38;;;;;;;;;;5074365;28;20214;-73
2022/03/25 13:48:07;;;;;;;27.27;21.20;;;;;;;;;;5053846;28;20241;-73
2022/03/25 13:50:47;;;;;;;26.83;21.50;;;;;;;;;;5068761;28;20286;-73
2022/03/25 13:53:20;;;;;;;27.42;21.55;;;;;;;;;;5054699;28;20207;-73
2022/03/25 13:55:48;;;;;;;27.75;20.40;;;;;;;;;;5054403;28;20249;-73
2022/03/25 13:58:34;;;;;;;30.05;22.55;;;;;;;;;;5054500;28;20226;-73
2022/03/25 14:01:02;;;;;;;31.52;22.13;;;;;;;;;;5070900;28;20206;-75
2022/03/25 14:03:32;;;;;;;27.48;21.77;;;;;;;;;;5072829;28;20202;-72
2022/03/25 14:06:23;;;;;;;29.58;21.75;;;;;;;;;;5055905;28;20211;-72
2022/03/25 14:08:53;;;;;;;28.73;23.42;;;;;;;;;;5070287;28;20592;-72
2022/03/25 14:11:32;;;;;;;30.55;24.92;;;;;;;;;;5072647;28;20587;-73
2022/03/25 14:14:01;;;;;;;31.55;24.15;;;;;;;;;;5071480;28;20252;-72
2022/03/25 14:16:32;;;;;;;29.35;22.88;;;;;;;;;;5073728;28;20222;-73
2022/03/25 14:19:01;;;;;;;31.92;22.20;;;;;;;;;;5071636;28;20568;-73
2022/03/25 14:21:32;;;;;;;29.13;21.20;;;;;;;;;;5072353;28;20260;-73
2022/03/25 14:26:47;;;;;;;29.75;23.08;;;;;;;;;;5071880;28;20222;-73
2022/03/25 14:29:16;;;;;;;28.20;22.45;;;;;;;;;;5058014;28;20187;-73
2022/03/25 14:31:44;;;;;;;29.50;23.05;;;;;;;;;;5072246;28;20649;-73
2022/03/25 14:34:13;;;;;;;27.77;22.40;;;;;;;;;;5069230;28;20214;-73
2022/03/25 14:36:55;;;;;;;29.90;23.23;;;;;;;;;;5072872;28;20229;-73
2022/03/25 14:39:24;;;;;;;33.25;23.15;;;;;;;;;;5073590;28;20218;-73